Topeka, KS (66611)

12:46 AM CST on February 27, 2017 (GMT -0600)
Knollwood | | Change Station

Elev 978 ft 39.02 °N, 95.70 °W | Updated 12 seconds ago

Clear
Clear
32.2 °F
Feels Like 32 °F
N
1.7
Wind Variable Wind from WNW

Today
High -- | Low -- °F
--% Chance of Precip.
Yesterday
High -- | Low -- °F
Precip. -- in
Pressure 30.03 in
Visibility 10.0 miles
Clouds Clear
Windchill 32 °F
Dew Point 30 °F
Humidity 90%
Rainfall 0.00 in
Snow Depth Not available.
6:57 AM 6:13 PM
New Moon, 1% visible
METAR KFOE 270553Z AUTO 00000KT 10SM CLR M01/M03 A3001 RMK AO2 SLP168 T10111033 10100 21017 401221017 50005
Pressure 30.03 in
Visibility 10.0 miles
Clouds Clear
Windchill 32 °F
Dew Point 30 °F
Humidity 90%
Rainfall 0.00 in
Snow Depth Not available.
6:57 AM 6:13 PM
New Moon, 1% visible
METAR KFOE 270553Z AUTO 00000KT 10SM CLR M01/M03 A3001 RMK AO2 SLP168 T10111033 10100 21017 401221017 50005

Get Your Daily Forecast Email!

Thanks for signing up!

Be on the lookout for a verification email in your inbox.

You'll start receiving the daily forecast at 8 AM.

×

10-Day Weather Forecast

Almanac

Astronomy

Feb. 27, 2017 Rise Set
Actual Time
Civil Twilight
Nautical Twilight
Astronomical Twilight
Moon
Length of Visible Light
Length of Day
Tomorrow will be .
, % of the Moon is Illuminated

Today's Extremes

State Highs State Lows

Community

WunderPhotos

Upload Photos

1,962,540 photos uploaded!

WunderBlog® & News

Nearby

Air Quality

  Air Quality AQ Index Pollutant
Not available.

Snow Depth

Station Depth Elevation

Earthquake Activity

City Distance Mag. Time & Date
Minimum magnitude displayed is 2.5.

Coastal Water Temperatures

Place Temperature

Stations

Nearby Weather Stations

Station Location Temp. Windchill Dew Point Humidity Wind Precip. Elev Updated Type
                   

Watches & Warnings

There are currently no watches in effect.